sensor_id;sensor_type;location;lat;lon;timestamp;pressure;altitude;pressure_sealevel;temperature;humidity
78056;BME280;67666;55.862;49.094;2023-02-28T00:01:31;100030.69;;;21.24;15.50
78056;BME280;67666;55.862;49.094;2023-02-28T00:03:57;100028.88;;;21.26;15.37
78056;BME280;67666;55.862;49.094;2023-02-28T00:06:24;100032.41;;;21.25;15.59
78056;BME280;67666;55.862;49.094;2023-02-28T00:08:50;100029.78;;;21.25;15.42
78056;BME280;67666;55.862;49.094;2023-02-28T00:11:17;100034.06;;;21.29;15.29
78056;BME280;67666;55.862;49.094;2023-02-28T00:13:45;100045.22;;;21.37;15.15
78056;BME280;67666;55.862;49.094;2023-02-28T00:16:18;100039.28;;;21.30;15.44
78056;BME280;67666;55.862;49.094;2023-02-28T00:18:45;100041.03;;;21.30;15.25
78056;BME280;67666;55.862;49.094;2023-02-28T00:21:13;100034.09;;;21.26;15.54
78056;BME280;67666;55.862;49.094;2023-02-28T00:23:39;100041.94;;;21.27;15.32
78056;BME280;67666;55.862;49.094;2023-02-28T00:26:06;100028.97;;;21.23;15.25
78056;BME280;67666;55.862;49.094;2023-02-28T00:28:32;100039.34;;;21.26;15.08
78056;BME280;67666;55.862;49.094;2023-02-28T00:30:59;100041.13;;;21.24;15.08
78056;BME280;67666;55.862;49.094;2023-02-28T00:33:27;100039.56;;;21.15;14.90
78056;BME280;67666;55.862;49.094;2023-02-28T00:36:07;100039.53;;;21.18;14.98
78056;BME280;67666;55.862;49.094;2023-02-28T00:38:37;100041.09;;;21.25;15.07
78056;BME280;67666;55.862;49.094;2023-02-28T00:41:04;100049.81;;;21.24;14.95
78056;BME280;67666;55.862;49.094;2023-02-28T00:43:32;100066.53;;;21.17;14.83
78056;BME280;67666;55.862;49.094;2023-02-28T00:45:58;100048.38;;;21.11;14.99
78056;BME280;67666;55.862;49.094;2023-02-28T00:48:25;100041.41;;;21.11;14.81
78056;BME280;67666;55.862;49.094;2023-02-28T00:50:51;100053.53;;;21.14;14.80
78056;BME280;67666;55.862;49.094;2023-02-28T00:53:18;100050.91;;;21.14;14.83
78056;BME280;67666;55.862;49.094;2023-02-28T00:55:44;100047.44;;;21.13;14.82
78056;BME280;67666;55.862;49.094;2023-02-28T00:58:10;100048.22;;;21.18;14.89
78056;BME280;67666;55.862;49.094;2023-02-28T01:00:37;100052.44;;;21.24;14.68
78056;BME280;67666;55.862;49.094;2023-02-28T01:03:03;100053.34;;;21.23;14.85
78056;BME280;67666;55.862;49.094;2023-02-28T01:05:29;100055.09;;;21.21;14.80
78056;BME280;67666;55.862;49.094;2023-02-28T01:07:56;100062.03;;;21.24;14.76
78056;BME280;67666;55.862;49.094;2023-02-28T01:10:23;100056.81;;;21.24;14.91
78056;BME280;67666;55.862;49.094;2023-02-28T01:12:49;100057.69;;;21.23;14.80
78056;BME280;67666;55.862;49.094;2023-02-28T01:15:15;100053.34;;;21.23;14.76
78056;BME280;67666;55.862;49.094;2023-02-28T01:17:42;100055.00;;;21.26;14.83
78056;BME280;67666;55.862;49.094;2023-02-28T01:20:09;100041.03;;;21.30;14.74
78056;BME280;67666;55.862;49.094;2023-02-28T01:22:35;100052.41;;;21.26;14.70
78056;BME280;67666;55.862;49.094;2023-02-28T01:25:02;100052.41;;;21.26;14.61
78056;BME280;67666;55.862;49.094;2023-02-28T01:27:31;100048.00;;;21.28;14.78
78056;BME280;67666;55.862;49.094;2023-02-28T01:29:58;100044.44;;;21.32;14.52
78056;BME280;67666;55.862;49.094;2023-02-28T01:32:24;100045.31;;;21.32;14.71
78056;BME280;67666;55.862;49.094;2023-02-28T01:34:50;100047.13;;;21.29;14.64
78056;BME280;67666;55.862;49.094;2023-02-28T01:37:17;100052.47;;;21.23;14.87
78056;BME280;67666;55.862;49.094;2023-02-28T01:39:43;100049.03;;;21.21;14.63
78056;BME280;67666;55.862;49.094;2023-02-28T01:42:10;100051.63;;;21.22;14.66
78056;BME280;67666;55.862;49.094;2023-02-28T01:45:00;100054.22;;;21.22;14.75
78056;BME280;67666;55.862;49.094;2023-02-28T01:47:30;100049.78;;;21.26;14.63
78056;BME280;67666;55.862;49.094;2023-02-28T01:49:58;100049.78;;;21.26;14.58
78056;BME280;67666;55.862;49.094;2023-02-28T01:52:26;100049.72;;;21.29;14.47
78056;BME280;67666;55.862;49.094;2023-02-28T01:54:55;100039.28;;;21.29;14.63
78056;BME280;67666;55.862;49.094;2023-02-28T01:57:31;100037.56;;;21.28;14.66
78056;BME280;67666;55.862;49.094;2023-02-28T02:00:24;100036.81;;;21.23;14.37
78056;BME280;67666;55.862;49.094;2023-02-28T02:03:05;100033.25;;;21.25;14.51
78056;BME280;67666;55.862;49.094;2023-02-28T02:05:32;100030.75;;;21.21;14.47
78056;BME280;67666;55.862;49.094;2023-02-28T02:08:09;100035.16;;;21.18;14.43
78056;BME280;67666;55.862;49.094;2023-02-28T02:10:56;100029.94;;;21.18;14.48
78056;BME280;67666;55.862;49.094;2023-02-28T02:41:24;100024.03;;;21.10;14.15
78056;BME280;67666;55.862;49.094;2023-02-28T02:44:05;100025.66;;;21.14;14.12
78056;BME280;67666;55.862;49.094;2023-02-28T02:46:41;100021.34;;;21.13;13.97
78056;BME280;67666;55.862;49.094;2023-02-28T02:49:13;100030.25;;;21.03;14.03
78056;BME280;67666;55.862;49.094;2023-02-28T02:51:42;100032.81;;;21.06;14.05
78056;BME280;67666;55.862;49.094;2023-02-28T02:54:15;100033.78;;;21.02;13.93
78056;BME280;67666;55.862;49.094;2023-02-28T02:56:44;100038.19;;;21.00;13.87
78056;BME280;67666;55.862;49.094;2023-02-28T02:59:14;100025.03;;;21.03;13.92
78056;BME280;67666;55.862;49.094;2023-02-28T03:01:51;100033.91;;;20.96;13.95
78056;BME280;67666;55.862;49.094;2023-02-28T03:04:20;100023.50;;;20.93;13.94
78056;BME280;67666;55.862;49.094;2023-02-28T03:06:48;100023.38;;;21.01;13.89
78056;BME280;67666;55.862;49.094;2023-02-28T03:09:16;100027.66;;;21.03;13.67
78056;BME280;67666;55.862;49.094;2023-02-28T03:11:42;100031.16;;;21.02;13.81
78056;BME280;67666;55.862;49.094;2023-02-28T03:20:18;100025.13;;;20.99;13.90
78056;BME280;67666;55.862;49.094;2023-02-28T03:23:03;100018.34;;;20.91;13.79
78056;BME280;67666;55.862;49.094;2023-02-28T03:25:54;100000.97;;;20.90;13.64
78056;BME280;67666;55.862;49.094;2023-02-28T03:28:43;100021.66;;;20.98;13.76
78056;BME280;67666;55.862;49.094;2023-02-28T03:31:37;100021.53;;;21.06;13.59
78056;BME280;67666;55.862;49.094;2023-02-28T03:34:18;100011.84;;;21.09;13.70
78056;BME280;67666;55.862;49.094;2023-02-28T03:36:50;100017.00;;;21.12;13.75
78056;BME280;67666;55.862;49.094;2023-02-28T03:39:23;100005.63;;;21.16;13.84
78056;BME280;67666;55.862;49.094;2023-02-28T03:47:00;100001.19;;;21.18;14.25
78056;BME280;67666;55.862;49.094;2023-02-28T03:49:36;100008.09;;;21.21;14.21
78056;BME280;67666;55.862;49.094;2023-02-28T03:52:09;100009.13;;;21.14;14.10
78056;BME280;67666;55.862;49.094;2023-02-28T03:54:41;99993.44;;;21.15;14.22
78056;BME280;67666;55.862;49.094;2023-02-28T04:00:13;99988.16;;;21.18;13.96
78056;BME280;67666;55.862;49.094;2023-02-28T04:02:41;99991.50;;;21.24;14.15
78056;BME280;67666;55.862;49.094;2023-02-28T04:05:08;100005.53;;;21.20;14.09
78056;BME280;67666;55.862;49.094;2023-02-28T04:07:34;100000.50;;;21.12;14.05
78056;BME280;67666;55.862;49.094;2023-02-28T04:10:01;99994.41;;;21.11;13.95
78056;BME280;67666;55.862;49.094;2023-02-28T04:12:27;99989.19;;;21.10;14.14
78056;BME280;67666;55.862;49.094;2023-02-28T04:14:54;99985.81;;;21.06;13.83
78056;BME280;67666;55.862;49.094;2023-02-28T04:17:20;99993.56;;;21.09;14.00
78056;BME280;67666;55.862;49.094;2023-02-28T04:19:46;99990.81;;;21.17;14.19
78056;BME280;67666;55.862;49.094;2023-02-28T04:22:13;99975.75;;;21.27;14.16
78056;BME280;67666;55.862;49.094;2023-02-28T04:24:39;99981.34;;;21.11;13.90
78056;BME280;67666;55.862;49.094;2023-02-28T04:27:08;99988.38;;;21.08;13.85
78056;BME280;67666;55.862;49.094;2023-02-28T04:29:35;99989.19;;;21.11;14.02
78056;BME280;67666;55.862;49.094;2023-02-28T04:32:02;99984.78;;;21.13;13.88
78056;BME280;67666;55.862;49.094;2023-02-28T04:34:30;99986.38;;;21.19;13.85
78056;BME280;67666;55.862;49.094;2023-02-28T04:36:57;99986.44;;;21.17;13.99
78056;BME280;67666;55.862;49.094;2023-02-28T04:39:24;99988.34;;;21.09;13.80
78056;BME280;67666;55.862;49.094;2023-02-28T04:41:50;99986.34;;;21.21;13.40
78056;BME280;67666;55.862;49.094;2023-02-28T04:44:17;99978.66;;;21.14;13.84
78056;BME280;67666;55.862;49.094;2023-02-28T04:46:43;99983.81;;;21.17;13.83
78056;BME280;67666;55.862;49.094;2023-02-28T04:49:11;99968.31;;;21.11;13.57
78056;BME280;67666;55.862;49.094;2023-02-28T04:51:38;99967.50;;;21.08;13.24
78056;BME280;67666;55.862;49.094;2023-02-28T04:54:04;99972.44;;;21.20;13.45
78056;BME280;67666;55.862;49.094;2023-02-28T04:56:31;99966.59;;;21.09;13.35
78056;BME280;67666;55.862;49.094;2023-02-28T04:58:58;99967.44;;;21.09;13.29
78056;BME280;67666;55.862;49.094;2023-02-28T05:01:28;99959.66;;;21.08;13.32
78056;BME280;67666;55.862;49.094;2023-02-28T05:03:57;99958.94;;;21.01;13.22
78056;BME280;67666;55.862;49.094;2023-02-28T05:06:25;99956.41;;;20.98;13.25
78056;BME280;67666;55.862;49.094;2023-02-28T05:08:52;99957.19;;;21.02;13.18
78056;BME280;67666;55.862;49.094;2023-02-28T05:11:22;99958.84;;;21.06;12.97
78056;BME280;67666;55.862;49.094;2023-02-28T05:13:50;99954.41;;;21.09;12.92
78056;BME280;67666;55.862;49.094;2023-02-28T05:16:17;99935.25;;;21.10;12.79
78056;BME280;67666;55.862;49.094;2023-02-28T05:18:44;99926.38;;;21.17;12.67
78056;BME280;67666;55.862;49.094;2023-02-28T05:21:23;99934.31;;;21.13;12.51
78056;BME280;67666;55.862;49.094;2023-02-28T05:23:51;99935.25;;;21.10;12.68
78056;BME280;67666;55.862;49.094;2023-02-28T05:26:18;99933.25;;;21.20;12.61
78056;BME280;67666;55.862;49.094;2023-02-28T05:28:44;99930.53;;;21.25;12.58
78056;BME280;67666;55.862;49.094;2023-02-28T05:31:11;99920.88;;;21.30;12.45
78056;BME280;67666;55.862;49.094;2023-02-28T05:33:37;99915.56;;;21.33;12.34
78056;BME280;67666;55.862;49.094;2023-02-28T05:36:04;99918.28;;;21.28;12.49
78056;BME280;67666;55.862;49.094;2023-02-28T05:38:31;99911.44;;;21.23;12.37
78056;BME280;67666;55.862;49.094;2023-02-28T05:40:58;99906.34;;;21.18;12.41
78056;BME280;67666;55.862;49.094;2023-02-28T05:43:24;99903.50;;;21.27;12.51
78056;BME280;67666;55.862;49.094;2023-02-28T05:45:51;99908.03;;;21.19;12.35
78056;BME280;67666;55.862;49.094;2023-02-28T05:48:17;99900.09;;;21.24;12.37
78056;BME280;67666;55.862;49.094;2023-02-28T05:50:44;99893.41;;;21.48;12.25
78056;BME280;67666;55.862;49.094;2023-02-28T05:53:12;99897.56;;;21.56;12.42
78056;BME280;67666;55.862;49.094;2023-02-28T05:55:38;99895.81;;;21.57;12.14
78056;BME280;67666;55.862;49.094;2023-02-28T05:58:05;99906.28;;;21.55;11.73
78056;BME280;67666;55.862;49.094;2023-02-28T06:00:31;99904.97;;;21.73;11.88
78056;BME280;67666;55.862;49.094;2023-02-28T06:02:57;99871.44;;;21.56;11.99
78056;BME280;67666;55.862;49.094;2023-02-28T06:05:27;99864.00;;;21.41;11.65
78056;BME280;67666;55.862;49.094;2023-02-28T06:07:54;99847.78;;;21.27;11.94
78056;BME280;67666;55.862;49.094;2023-02-28T06:10:20;99854.44;;;21.40;12.00
78056;BME280;67666;55.862;49.094;2023-02-28T06:12:46;99836.47;;;21.26;12.19
78056;BME280;67666;55.862;49.094;2023-02-28T06:15:14;99851.28;;;21.26;12.29
78056;BME280;67666;55.862;49.094;2023-02-28T06:17:42;99860.03;;;21.25;12.50
78056;BME280;67666;55.862;49.094;2023-02-28T06:20:10;99830.31;;;21.29;12.30
78056;BME280;67666;55.862;49.094;2023-02-28T06:22:39;99839.91;;;21.28;12.29
78056;BME280;67666;55.862;49.094;2023-02-28T06:25:06;99854.44;;;21.40;12.22
78056;BME280;67666;55.862;49.094;2023-02-28T06:27:33;99840.81;;;21.27;12.02
78056;BME280;67666;55.862;49.094;2023-02-28T06:30:00;99831.69;;;21.43;11.87
78056;BME280;67666;55.862;49.094;2023-02-28T06:32:26;99826.84;;;21.61;11.87
78056;BME280;67666;55.862;49.094;2023-02-28T06:34:52;99812.91;;;21.62;12.08
78056;BME280;67666;55.862;49.094;2023-02-28T06:37:19;99795.50;;;21.61;12.31
78056;BME280;67666;55.862;49.094;2023-02-28T06:39:45;99803.75;;;21.47;12.44
78056;BME280;67666;55.862;49.094;2023-02-28T06:42:12;99801.75;;;21.23;12.54
78056;BME280;67666;55.862;49.094;2023-02-28T06:44:38;99793.75;;;21.30;12.32
78056;BME280;67666;55.862;49.094;2023-02-28T06:47:05;99780.25;;;21.13;12.45
78056;BME280;67666;55.862;49.094;2023-02-28T06:49:34;99785.91;;;21.30;12.37
78056;BME280;67666;55.862;49.094;2023-02-28T06:52:01;99773.09;;;21.20;12.18
78056;BME280;67666;55.862;49.094;2023-02-28T06:54:27;99765.16;;;21.24;12.20
78056;BME280;67666;55.862;49.094;2023-02-28T06:56:53;99772.19;;;21.21;12.15
78056;BME280;67666;55.862;49.094;2023-02-28T06:59:22;99760.16;;;21.15;12.03
78056;BME280;67666;55.862;49.094;2023-02-28T07:01:49;99762.69;;;21.18;12.13
78056;BME280;67666;55.862;49.094;2023-02-28T07:04:15;99741.88;;;21.16;12.14
78056;BME280;67666;55.862;49.094;2023-02-28T07:06:41;99741.38;;;21.35;12.14
78056;BME280;67666;55.862;49.094;2023-02-28T07:09:07;99736.75;;;21.45;11.57
78056;BME280;67666;55.862;49.094;2023-02-28T07:11:34;99732.13;;;21.54;11.49
78056;BME280;67666;55.862;49.094;2023-02-28T07:14:00;99692.13;;;21.52;11.63
78056;BME280;67666;55.862;49.094;2023-02-28T07:16:26;99718.78;;;21.63;11.57
78056;BME280;67666;55.862;49.094;2023-02-28T07:18:53;99704.00;;;21.92;11.56
78056;BME280;67666;55.862;49.094;2023-02-28T07:21:20;99695.41;;;22.16;11.75
78056;BME280;67666;55.862;49.094;2023-02-28T07:23:46;99702.78;;;22.32;11.82
78056;BME280;67666;55.862;49.094;2023-02-28T07:26:15;99700.72;;;22.41;11.66
78056;BME280;67666;55.862;49.094;2023-02-28T07:28:44;99661.91;;;22.54;11.84
78056;BME280;67666;55.862;49.094;2023-02-28T07:31:12;99680.31;;;22.51;11.82
78056;BME280;67666;55.862;49.094;2023-02-28T07:33:40;99672.31;;;22.56;11.55
78056;BME280;67666;55.862;49.094;2023-02-28T07:38:36;99677.19;;;22.66;11.71
78056;BME280;67666;55.862;49.094;2023-02-28T07:41:03;99651.09;;;22.63;11.59
78056;BME280;67666;55.862;49.094;2023-02-28T07:43:34;99621.09;;;22.73;11.32
78056;BME280;67666;55.862;49.094;2023-02-28T07:46:08;99633.22;;;22.76;11.31
78056;BME280;67666;55.862;49.094;2023-02-28T07:48:35;99638.97;;;22.86;11.26
78056;BME280;67666;55.862;49.094;2023-02-28T07:51:02;99623.75;;;22.97;11.27
78056;BME280;67666;55.862;49.094;2023-02-28T07:53:29;99614.56;;;23.10;11.15
78056;BME280;67666;55.862;49.094;2023-02-28T07:55:59;99606.34;;;23.19;10.92
78056;BME280;67666;55.862;49.094;2023-02-28T07:58:27;99592.22;;;23.23;11.17
78056;BME280;67666;55.862;49.094;2023-02-28T08:00:54;99598.16;;;23.28;11.06
78056;BME280;67666;55.862;49.094;2023-02-28T08:03:22;99596.97;;;23.37;10.60
78056;BME280;67666;55.862;49.094;2023-02-28T08:05:49;99568.13;;;23.37;10.76
78056;BME280;67666;55.862;49.094;2023-02-28T08:08:16;99585.59;;;23.37;10.49
78056;BME280;67666;55.862;49.094;2023-02-28T08:10:43;99587.25;;;23.39;10.24
78056;BME280;67666;55.862;49.094;2023-02-28T08:13:09;99572.50;;;23.37;10.66
78056;BME280;67666;55.862;49.094;2023-02-28T08:15:36;99550.75;;;23.35;10.65
78056;BME280;67666;55.862;49.094;2023-02-28T08:18:02;99569.03;;;23.36;10.20
78056;BME280;67666;55.862;49.094;2023-02-28T08:20:28;99562.22;;;23.32;10.46
78056;BME280;67666;55.862;49.094;2023-02-28T08:22:55;99536.19;;;23.27;10.12
78056;BME280;67666;55.862;49.094;2023-02-28T08:25:21;99544.84;;;23.30;10.00
78056;BME280;67666;55.862;49.094;2023-02-28T08:27:47;99536.06;;;23.31;10.32
78056;BME280;67666;55.862;49.094;2023-02-28T08:30:14;99537.78;;;23.32;10.29
78056;BME280;67666;55.862;49.094;2023-02-28T08:32:41;99537.16;;;23.25;10.11
78056;BME280;67666;55.862;49.094;2023-02-28T08:35:07;99527.66;;;23.22;10.11
78056;BME280;67666;55.862;49.094;2023-02-28T08:37:35;99509.06;;;23.28;10.36
78056;BME280;67666;55.862;49.094;2023-02-28T08:40:02;99532.03;;;23.22;10.28
78056;BME280;67666;55.862;49.094;2023-02-28T08:42:30;99531.72;;;23.08;10.12
78056;BME280;67666;55.862;49.094;2023-02-28T08:44:56;99525.19;;;22.96;10.11
78056;BME280;67666;55.862;49.094;2023-02-28T08:47:22;99499.72;;;22.99;10.33
78056;BME280;67666;55.862;49.094;2023-02-28T08:49:48;99499.81;;;22.98;10.15
78056;BME280;67666;55.862;49.094;2023-02-28T08:52:15;99496.50;;;22.93;10.44
78056;BME280;67666;55.862;49.094;2023-02-28T08:54:41;99489.19;;;23.01;10.65
78056;BME280;67666;55.862;49.094;2023-02-28T08:57:07;99476.69;;;23.09;10.63
78056;BME280;67666;55.862;49.094;2023-02-28T08:59:34;99462.28;;;23.19;10.79
78056;BME280;67666;55.862;49.094;2023-02-28T09:02:00;99461.25;;;23.23;11.06
78056;BME280;67666;55.862;49.094;2023-02-28T09:04:26;99447.38;;;23.21;11.21
78056;BME280;67666;55.862;49.094;2023-02-28T09:06:52;99443.50;;;23.30;11.28
78056;BME280;67666;55.862;49.094;2023-02-28T09:09:19;99434.53;;;23.36;11.40
78056;BME280;67666;55.862;49.094;2023-02-28T09:11:45;99418.97;;;23.33;11.63
78056;BME280;67666;55.862;49.094;2023-02-28T09:14:11;99415.06;;;23.43;11.78
78056;BME280;67666;55.862;49.094;2023-02-28T09:16:37;99412.81;;;23.54;12.11
78056;BME280;67666;55.862;49.094;2023-02-28T09:19:04;99401.53;;;23.74;11.44
78056;BME280;67666;55.862;49.094;2023-02-28T09:21:30;99406.44;;;23.82;12.18
78056;BME280;67666;55.862;49.094;2023-02-28T09:23:56;99401.84;;;23.87;11.89
78056;BME280;67666;55.862;49.094;2023-02-28T09:26:25;99399.50;;;23.80;12.13
78056;BME280;67666;55.862;49.094;2023-02-28T09:28:52;99405.00;;;23.74;12.06
78056;BME280;67666;55.862;49.094;2023-02-28T09:31:23;99401.97;;;23.63;10.88
78056;BME280;67666;55.862;49.094;2023-02-28T09:33:51;99375.88;;;23.60;11.13
78056;BME280;67666;55.862;49.094;2023-02-28T09:36:18;99385.91;;;23.50;11.04
78056;BME280;67666;55.862;49.094;2023-02-28T09:38:44;99382.69;;;23.44;10.77
78056;BME280;67666;55.862;49.094;2023-02-28T09:41:18;99389.72;;;23.43;10.50
78056;BME280;67666;55.862;49.094;2023-02-28T09:43:52;99376.53;;;23.45;10.27
78056;BME280;67666;55.862;49.094;2023-02-28T09:46:43;99360.66;;;23.48;10.22
78056;BME280;67666;55.862;49.094;2023-02-28T09:49:14;99351.94;;;23.47;10.19
78056;BME280;67666;55.862;49.094;2023-02-28T09:54:14;99340.69;;;23.45;10.26
78056;BME280;67666;55.862;49.094;2023-02-28T09:56:58;99329.44;;;23.43;10.27
78056;BME280;67666;55.862;49.094;2023-02-28T09:59:41;99320.59;;;23.46;10.10
78056;BME280;67666;55.862;49.094;2023-02-28T10:02:41;99298.69;;;23.47;9.97
78056;BME280;67666;55.862;49.094;2023-02-28T10:05:14;99302.88;;;23.51;10.18
78056;BME280;67666;55.862;49.094;2023-02-28T10:10:50;99284.69;;;23.68;10.15
78056;BME280;67666;55.862;49.094;2023-02-28T10:13:35;99280.09;;;23.73;10.16
78056;BME280;67666;55.862;49.094;2023-02-28T10:16:10;99257.97;;;23.79;10.09
78056;BME280;67666;55.862;49.094;2023-02-28T10:19:04;99263.16;;;23.80;9.85
78056;BME280;67666;55.862;49.094;2023-02-28T10:21:38;99249.75;;;23.87;9.64
78056;BME280;67666;55.862;49.094;2023-02-28T10:24:40;99242.91;;;23.84;10.07
78056;BME280;67666;55.862;49.094;2023-02-28T10:27:23;99233.03;;;24.08;9.73
78056;BME280;67666;55.862;49.094;2023-02-28T10:29:58;99232.94;;;24.28;9.74
78056;BME280;67666;55.862;49.094;2023-02-28T10:32:30;99221.88;;;24.22;9.29
78056;BME280;67666;55.862;49.094;2023-02-28T10:37:43;99190.50;;;23.24;9.87
78056;BME280;67666;55.862;49.094;2023-02-28T10:45:24;99193.13;;;23.24;10.21
78056;BME280;67666;55.862;49.094;2023-02-28T10:47:55;99173.50;;;23.14;10.22
78056;BME280;67666;55.862;49.094;2023-02-28T10:58:50;99138.19;;;23.04;10.58
78056;BME280;67666;55.862;49.094;2023-02-28T11:01:18;99148.97;;;22.96;10.66
78056;BME280;67666;55.862;49.094;2023-02-28T11:03:45;99152.84;;;22.88;10.53
78056;BME280;67666;55.862;49.094;2023-02-28T11:06:15;99140.69;;;22.85;10.87
78056;BME280;67666;55.862;49.094;2023-02-28T11:09:04;99132.66;;;23.10;11.22
78056;BME280;67666;55.862;49.094;2023-02-28T11:11:43;99120.44;;;23.30;11.14
78056;BME280;67666;55.862;49.094;2023-02-28T11:14:39;99149.47;;;23.44;10.81
78056;BME280;67666;55.862;49.094;2023-02-28T11:17:21;99130.34;;;23.42;11.39
78056;BME280;67666;55.862;49.094;2023-02-28T11:19:51;99152.03;;;23.26;11.40
78056;BME280;67666;55.862;49.094;2023-02-28T11:22:21;99134.09;;;23.17;11.94
78056;BME280;67666;55.862;49.094;2023-02-28T11:24:52;99135.94;;;23.15;11.91
78056;BME280;67666;55.862;49.094;2023-02-28T11:29:58;99126.94;;;23.21;11.53
78056;BME280;67666;55.862;49.094;2023-02-28T11:32:29;99115.31;;;23.08;11.89
78056;BME280;67666;55.862;49.094;2023-02-28T11:37:38;99120.59;;;22.87;12.06
78056;BME280;67666;55.862;49.094;2023-02-28T11:40:30;99121.13;;;22.73;12.32
78056;BME280;67666;55.862;49.094;2023-02-28T11:48:38;99100.34;;;22.70;12.43
78056;BME280;67666;55.862;49.094;2023-02-28T11:51:23;99064.56;;;22.71;12.60
78056;BME280;67666;55.862;49.094;2023-02-28T11:56:51;99095.38;;;22.64;12.52
78056;BME280;67666;55.862;49.094;2023-02-28T12:07:23;99081.19;;;22.49;12.50
78056;BME280;67666;55.862;49.094;2023-02-28T12:10:21;99076.22;;;22.43;12.62
78056;BME280;67666;55.862;49.094;2023-02-28T12:13:16;99076.41;;;22.39;12.54
78056;BME280;67666;55.862;49.094;2023-02-28T12:18:46;99076.00;;;22.28;12.45
78056;BME280;67666;55.862;49.094;2023-02-28T12:27:13;99048.28;;;22.23;12.63
78056;BME280;67666;55.862;49.094;2023-02-28T12:29:49;99051.09;;;22.19;12.78
78056;BME280;67666;55.862;49.094;2023-02-28T12:32:39;99043.25;;;22.19;12.86
78056;BME280;67666;55.862;49.094;2023-02-28T12:37:51;99027.00;;;22.12;12.80
78056;BME280;67666;55.862;49.094;2023-02-28T12:40:23;99034.69;;;22.15;12.95
78056;BME280;67666;55.862;49.094;2023-02-28T12:42:56;99019.16;;;22.12;13.12
78056;BME280;67666;55.862;49.094;2023-02-28T12:48:00;99029.75;;;22.08;13.72
78056;BME280;67666;55.862;49.094;2023-02-28T12:50:29;99029.88;;;22.05;13.37
78056;BME280;67666;55.862;49.094;2023-02-28T12:53:09;99033.47;;;22.02;13.38
78056;BME280;67666;55.862;49.094;2023-02-28T12:55:54;99031.81;;;22.00;13.21
78056;BME280;67666;55.862;49.094;2023-02-28T13:01:42;99025.88;;;21.96;13.22
78056;BME280;67666;55.862;49.094;2023-02-28T13:04:36;99022.44;;;21.95;13.07
78056;BME280;67666;55.862;49.094;2023-02-28T13:09:35;99031.91;;;21.98;12.97
78056;BME280;67666;55.862;49.094;2023-02-28T13:12:01;99022.72;;;21.88;12.84
78056;BME280;67666;55.862;49.094;2023-02-28T13:14:38;99004.69;;;21.82;12.72
78056;BME280;67666;55.862;49.094;2023-02-28T13:19:57;98993.50;;;21.78;13.35
78056;BME280;67666;55.862;49.094;2023-02-28T13:22:45;98998.78;;;21.77;13.43
78056;BME280;67666;55.862;49.094;2023-02-28T13:28:01;98975.34;;;21.75;13.62
78056;BME280;67666;55.862;49.094;2023-02-28T13:46:35;98975.69;;;21.67;13.55
78056;BME280;67666;55.862;49.094;2023-02-28T13:52:16;98959.16;;;21.67;13.52
78056;BME280;67666;55.862;49.094;2023-02-28T13:55:06;98952.19;;;21.66;13.20
78056;BME280;67666;55.862;49.094;2023-02-28T14:01:16;98947.19;;;21.61;13.79
78056;BME280;67666;55.862;49.094;2023-02-28T14:06:28;98929.75;;;21.62;13.38
78056;BME280;67666;55.862;49.094;2023-02-28T14:08:59;98937.63;;;21.60;13.45
78056;BME280;67666;55.862;49.094;2023-02-28T14:11:37;98927.44;;;21.54;13.67
78056;BME280;67666;55.862;49.094;2023-02-28T14:14:06;98928.16;;;21.58;13.49
78056;BME280;67666;55.862;49.094;2023-02-28T14:16:45;98925.63;;;21.56;13.65
78056;BME280;67666;55.862;49.094;2023-02-28T14:19:18;98926.47;;;21.57;13.75
78056;BME280;67666;55.862;49.094;2023-02-28T14:21:59;98934.34;;;21.55;13.68
78056;BME280;67666;55.862;49.094;2023-02-28T14:25:04;98931.63;;;21.58;13.47
78056;BME280;67666;55.862;49.094;2023-02-28T14:27:32;98932.41;;;21.60;13.52
78056;BME280;67666;55.862;49.094;2023-02-28T14:37:54;98942.75;;;21.63;13.64
78056;BME280;67666;55.862;49.094;2023-02-28T14:40:30;98940.97;;;21.64;13.40
78056;BME280;67666;55.862;49.094;2023-02-28T14:43:01;98960.84;;;21.68;13.23
78056;BME280;67666;55.862;49.094;2023-02-28T14:45:30;98951.34;;;21.65;13.27
78056;BME280;67666;55.862;49.094;2023-02-28T14:47:57;98963.47;;;21.68;13.18
78056;BME280;67666;55.862;49.094;2023-02-28T14:50:31;98965.25;;;21.66;13.45
78056;BME280;67666;55.862;49.094;2023-02-28T14:52:58;98968.72;;;21.66;13.47
78056;BME280;67666;55.862;49.094;2023-02-28T14:55:28;98961.69;;;21.68;13.76
78056;BME280;67666;55.862;49.094;2023-02-28T14:57:58;98966.19;;;21.65;13.71
78056;BME280;67666;55.862;49.094;2023-02-28T15:00:31;98964.59;;;21.61;13.53
78056;BME280;67666;55.862;49.094;2023-02-28T15:02:59;98964.94;;;21.53;13.24
78056;BME280;67666;55.862;49.094;2023-02-28T15:05:32;98977.88;;;21.56;13.55
78056;BME280;67666;55.862;49.094;2023-02-28T15:08:14;98968.31;;;21.55;13.28
78056;BME280;67666;55.862;49.094;2023-02-28T15:10:50;98970.31;;;21.49;13.21
78056;BME280;67666;55.862;49.094;2023-02-28T15:13:18;98953.13;;;21.43;13.35
78056;BME280;67666;55.862;49.094;2023-02-28T15:16:10;98967.47;;;21.33;13.35
78056;BME280;67666;55.862;49.094;2023-02-28T15:21:21;98968.50;;;21.29;13.37
78056;BME280;67666;55.862;49.094;2023-02-28T15:24:11;98973.97;;;21.23;13.25
78056;BME280;67666;55.862;49.094;2023-02-28T15:26:42;98963.63;;;21.20;13.83
78056;BME280;67666;55.862;49.094;2023-02-28T15:29:13;98964.53;;;21.18;13.51
78056;BME280;67666;55.862;49.094;2023-02-28T15:31:56;98967.16;;;21.18;13.66
78056;BME280;67666;55.862;49.094;2023-02-28T15:34:33;98964.84;;;21.11;13.68
78056;BME280;67666;55.862;49.094;2023-02-28T15:37:00;98944.06;;;21.08;13.72